createdAt,value
2019-02-15T00:02:07.246Z,67.28
2019-02-15T00:04:42.371Z,66.91
2019-02-15T00:07:19.400Z,67.19
2019-02-15T00:09:52.222Z,67.76
2019-02-15T00:12:27.226Z,67.71
2019-02-15T00:15:00.784Z,67.57
2019-02-15T00:17:34.452Z,67.69
2019-02-15T00:20:08.252Z,67.44
2019-02-15T00:22:41.717Z,68.11
2019-02-15T00:25:15.274Z,68.02
2019-02-15T00:27:50.081Z,67.96
2019-02-15T00:30:23.725Z,68.55
2019-02-15T00:32:57.568Z,68.93
2019-02-15T00:35:31.681Z,68.53
2019-02-15T00:38:07.168Z,68.07
2019-02-15T00:40:42.350Z,67.83
2019-02-15T00:43:22.089Z,67.45
2019-02-15T00:45:51.221Z,67.56
2019-02-15T00:48:24.780Z,66.88
2019-02-15T00:50:58.387Z,67.45
2019-02-15T00:53:31.956Z,67.38
2019-02-15T00:56:06.820Z,67.56
2019-02-15T00:58:40.402Z,67.45
2019-02-15T01:01:13.808Z,66.81
2019-02-15T01:03:47.666Z,66.88
2019-02-15T01:06:22.465Z,66.51
2019-02-15T01:08:56.320Z,66.33
2019-02-15T01:11:30.006Z,66.61
2019-02-15T01:14:03.914Z,66.25
2019-02-15T01:16:37.468Z,66.71
2019-02-15T01:19:11.333Z,66.00
2019-02-15T01:21:45.304Z,65.72
2019-02-15T01:24:19.011Z,65.37
2019-02-15T01:26:53.843Z,66.07
2019-02-15T01:29:27.569Z,66.02
2019-02-15T01:32:02.192Z,66.28
2019-02-15T01:34:36.793Z,66.14
2019-02-15T01:37:10.597Z,66.56
2019-02-15T01:39:44.271Z,65.98
2019-02-15T01:42:18.194Z,66.39
2019-02-15T01:44:52.364Z,66.91
2019-02-15T01:47:25.988Z,67.17
2019-02-15T01:49:59.947Z,67.25
2019-02-15T01:52:34.301Z,67.33
2019-02-15T01:55:09.104Z,67.27
2019-02-15T01:57:44.370Z,67.62
2019-02-15T02:00:19.965Z,66.96
2019-02-15T02:02:53.804Z,66.63
2019-02-15T02:05:27.474Z,65.95
2019-02-15T02:08:02.728Z,66.15
2019-02-15T02:10:37.463Z,65.72
2019-02-15T02:13:14.687Z,66.28
2019-02-15T02:15:48.509Z,65.04
2019-02-15T02:18:22.583Z,66.02
2019-02-15T02:20:56.276Z,64.82
2019-02-15T02:23:30.182Z,64.87
2019-02-15T02:26:04.044Z,65.64
2019-02-15T02:28:37.876Z,64.73
2019-02-15T02:31:11.500Z,65.07
2019-02-15T02:33:45.321Z,65.33
2019-02-15T02:36:19.236Z,65.71
2019-02-15T02:38:52.826Z,64.93
2019-02-15T02:41:26.457Z,65.34
2019-02-15T02:44:00.303Z,63.42
2019-02-15T02:46:33.876Z,64.94
2019-02-15T02:49:10.443Z,63.04
2019-02-15T02:51:44.078Z,63.68
2019-02-15T02:54:17.800Z,63.52
2019-02-15T02:56:51.469Z,63.29
2019-02-15T02:59:24.922Z,62.16
2019-02-15T03:01:58.468Z,62.42
2019-02-15T03:04:32.063Z,62.68
2019-02-15T03:07:15.163Z,63.17
2019-02-15T03:15:37.725Z,64.18
2019-02-15T03:18:12.422Z,63.37
2019-02-15T03:20:46.306Z,64.16
2019-02-15T03:23:19.887Z,65.42
2019-02-15T03:25:53.348Z,66.81
2019-02-15T03:28:26.839Z,67.12
2019-02-15T03:31:01.498Z,67.01
2019-02-15T03:33:37.799Z,68.17
2019-02-15T03:36:13.447Z,67.32
2019-02-15T03:38:48.694Z,67.46
2019-02-15T03:41:25.224Z,66.06
2019-02-15T03:44:01.475Z,66.15
2019-02-15T03:46:37.017Z,63.41
2019-02-15T03:49:12.855Z,61.89
2019-02-15T03:51:47.800Z,59.73
2019-02-15T03:54:22.470Z,58.72
2019-02-15T03:56:57.614Z,59.63
2019-02-15T03:59:32.168Z,58.16
2019-02-15T04:02:06.052Z,59.17
2019-02-15T04:04:41.454Z,58.33
2019-02-15T04:07:15.828Z,59.26
2019-02-15T04:09:49.699Z,59.87
2019-02-15T04:12:28.008Z,59.87
2019-02-15T04:15:06.801Z,58.21
2019-02-15T04:17:41.575Z,56.61
2019-02-15T04:20:16.799Z,56.63
2019-02-15T04:22:50.767Z,56.96
2019-02-15T04:25:34.240Z,58.29
2019-02-15T04:28:10.296Z,58.20
2019-02-15T04:30:44.629Z,58.91
2019-02-15T04:33:21.315Z,58.60
2019-02-15T04:35:57.309Z,58.04
2019-02-15T04:38:33.929Z,57.74
2019-02-15T04:41:10.962Z,56.45
2019-02-15T04:43:45.534Z,57.91
2019-02-15T04:46:20.962Z,57.47
2019-02-15T04:49:02.225Z,58.35
2019-02-15T04:51:34.951Z,57.78
2019-02-15T04:54:13.543Z,57.80
2019-02-15T04:56:49.240Z,56.11
2019-02-15T04:59:25.327Z,55.55
2019-02-15T05:01:59.717Z,56.21
2019-02-15T05:04:35.725Z,58.73
2019-02-15T05:07:10.228Z,57.56
2019-02-15T05:09:46.533Z,57.37
2019-02-15T05:12:20.999Z,57.45
2019-02-15T05:14:56.218Z,58.73
2019-02-15T05:17:30.467Z,59.20
2019-02-15T05:20:04.909Z,59.11
2019-02-15T05:22:39.459Z,58.75
2019-02-15T05:25:14.064Z,56.34
2019-02-15T05:27:48.627Z,55.68
2019-02-15T05:30:22.950Z,54.75
2019-02-15T05:32:57.235Z,56.09
2019-02-15T05:35:31.808Z,58.08
2019-02-15T05:38:07.366Z,58.02
2019-02-15T05:40:41.967Z,57.78
2019-02-15T05:43:16.336Z,58.54
2019-02-15T05:45:50.776Z,57.84
2019-02-15T05:48:28.118Z,58.15
2019-02-15T05:51:02.595Z,58.20
2019-02-15T05:53:36.965Z,59.82
2019-02-15T05:56:11.340Z,58.85
2019-02-15T05:58:47.201Z,59.35
2019-02-15T06:01:21.613Z,59.97
2019-02-15T06:03:55.696Z,58.91
2019-02-15T06:06:30.140Z,58.56
2019-02-15T06:09:04.482Z,58.82
2019-02-15T06:11:38.948Z,58.44
2019-02-15T06:14:13.533Z,60.21
2019-02-15T06:16:47.837Z,60.43
2019-02-15T06:19:25.018Z,60.13
2019-02-15T06:22:01.048Z,61.31
2019-02-15T06:24:35.486Z,61.82
2019-02-15T06:27:11.943Z,62.13
2019-02-15T06:29:46.286Z,61.64
2019-02-15T06:32:20.762Z,61.96
2019-02-15T06:34:55.024Z,61.97
2019-02-15T06:37:29.743Z,61.86
2019-02-15T06:40:04.206Z,62.83
2019-02-15T06:42:38.597Z,61.05
2019-02-15T06:45:13.014Z,60.19
2019-02-15T06:47:47.417Z,59.70
2019-02-15T06:50:21.875Z,58.80
2019-02-15T06:52:55.963Z,58.46
2019-02-15T06:55:30.500Z,56.40
2019-02-15T06:58:05.025Z,56.77
2019-02-15T07:00:39.495Z,54.88
2019-02-15T07:03:14.042Z,55.94
2019-02-15T07:05:48.751Z,57.36
2019-02-15T07:08:22.990Z,57.56
2019-02-15T07:10:57.296Z,56.49
2019-02-15T07:13:31.633Z,56.37
2019-02-15T07:16:07.900Z,56.58
2019-02-15T07:18:44.052Z,57.09
2019-02-15T07:21:20.007Z,58.29
2019-02-15T07:23:54.772Z,57.08
2019-02-15T07:26:35.587Z,57.24
2019-02-15T07:29:51.386Z,57.05
2019-02-15T07:32:26.521Z,56.80
2019-02-15T07:35:02.575Z,57.96
2019-02-15T07:37:37.400Z,58.46
2019-02-15T07:40:13.536Z,57.84
2019-02-15T07:42:50.716Z,59.42
2019-02-15T07:45:25.494Z,57.59
2019-02-15T07:48:03.490Z,57.66
2019-02-15T07:50:38.102Z,58.41
2019-02-15T07:53:13.150Z,59.21
2019-02-15T07:55:47.984Z,59.09
2019-02-15T07:58:22.939Z,59.30
2019-02-15T08:00:58.647Z,59.64
2019-02-15T08:03:35.315Z,59.84
2019-02-15T08:06:10.650Z,60.02
2019-02-15T08:08:45.456Z,60.62
2019-02-15T08:11:20.765Z,61.07
2019-02-15T08:13:55.865Z,61.81
2019-02-15T08:16:31.529Z,61.51
2019-02-15T08:19:06.686Z,61.81
2019-02-15T08:21:41.819Z,62.02
2019-02-15T08:24:16.572Z,62.04
2019-02-15T08:26:51.477Z,61.62
2019-02-15T08:29:25.886Z,61.14
2019-02-15T08:32:00.750Z,61.71
2019-02-15T08:34:35.554Z,60.68
2019-02-15T08:37:11.310Z,61.48
2019-02-15T08:39:46.033Z,62.13
2019-02-15T08:42:20.449Z,62.81
2019-02-15T08:44:55.229Z,63.63
2019-02-15T08:47:29.816Z,63.92
2019-02-15T08:50:04.337Z,63.60
2019-02-15T08:52:40.483Z,64.75
2019-02-15T08:55:15.581Z,64.47
2019-02-15T08:57:50.353Z,64.96
2019-02-15T09:00:25.245Z,65.12
2019-02-15T09:03:00.029Z,65.55
2019-02-15T09:05:35.696Z,65.73
2019-02-15T09:08:11.168Z,66.47
2019-02-15T09:10:46.722Z,66.94
2019-02-15T09:13:22.357Z,66.69
2019-02-15T09:15:58.805Z,67.86
2019-02-15T09:18:37.292Z,69.22
2019-02-15T09:21:12.273Z,69.22
2019-02-15T09:23:49.315Z,69.17
2019-02-15T09:26:25.627Z,69.18
2019-02-15T09:29:02.570Z,69.49
2019-02-15T09:31:41.348Z,69.60
2019-02-15T09:34:16.365Z,69.81
2019-02-15T09:36:53.945Z,70.13
2019-02-15T09:39:28.793Z,70.60
2019-02-15T09:42:03.263Z,70.62
2019-02-15T09:44:38.184Z,70.80
2019-02-15T09:47:14.648Z,69.76
2019-02-15T09:49:50.489Z,69.95
2019-02-15T09:52:29.739Z,70.49
2019-02-15T09:55:06.132Z,70.21
2019-02-15T09:57:42.568Z,70.10
2019-02-15T10:00:20.793Z,70.07
2019-02-15T10:02:57.723Z,70.43
2019-02-15T10:05:35.288Z,70.55
2019-02-15T10:08:10.949Z,69.91
2019-02-15T10:10:46.075Z,69.92
2019-02-15T10:13:22.518Z,69.79
2019-02-15T10:15:59.902Z,70.22
2019-02-15T10:18:35.229Z,69.60
2019-02-15T10:21:11.126Z,69.75
2019-02-15T10:32:34.242Z,70.62
2019-02-15T10:35:21.369Z,70.27
2019-02-15T10:37:56.245Z,69.67
2019-02-15T10:40:31.253Z,70.22
2019-02-15T10:43:06.849Z,70.67
2019-02-15T10:45:42.406Z,70.70
2019-02-15T10:48:18.582Z,70.84
2019-02-15T10:50:53.628Z,70.73
2019-02-15T10:53:32.142Z,70.79
2019-02-15T10:56:07.333Z,70.97
2019-02-15T10:58:42.925Z,71.46
2019-02-15T11:01:18.204Z,71.08
2019-02-15T11:03:54.640Z,71.48
2019-02-15T11:06:29.848Z,71.85
2019-02-15T11:09:05.862Z,71.96
2019-02-15T11:11:41.682Z,72.72
2019-02-15T11:14:18.885Z,72.68
2019-02-15T11:16:58.033Z,72.79
2019-02-15T11:19:32.781Z,73.38
2019-02-15T11:22:07.931Z,73.83
2019-02-15T11:24:47.341Z,73.69
2019-02-15T11:27:23.099Z,73.47
2019-02-15T11:29:58.509Z,73.46
2019-02-15T11:32:34.294Z,73.16
2019-02-15T11:35:11.576Z,73.21
2019-02-15T11:37:49.381Z,73.42
2019-02-15T11:40:26.697Z,73.17
2019-02-15T11:43:04.208Z,72.87
2019-02-15T11:45:39.451Z,73.69
2019-02-15T11:48:15.372Z,72.93
2019-02-15T11:50:50.687Z,72.56
2019-02-15T11:53:26.309Z,72.50
2019-02-15T11:56:01.991Z,72.52
2019-02-15T11:58:37.958Z,72.21
2019-02-15T12:01:13.524Z,72.10
2019-02-15T12:03:49.555Z,72.21
2019-02-15T12:06:24.809Z,72.03
2019-02-15T12:09:00.712Z,72.16
2019-02-15T12:11:35.822Z,72.83
2019-02-15T12:14:13.190Z,72.83
2019-02-15T12:16:49.172Z,72.82
2019-02-15T12:19:25.015Z,72.44
2019-02-15T12:22:02.523Z,72.21
2019-02-15T12:24:40.263Z,72.30
2019-02-15T12:27:19.055Z,71.79
2019-02-15T12:29:56.081Z,71.62
2019-02-15T12:32:31.531Z,71.96
2019-02-15T12:35:16.501Z,72.37
2019-02-15T12:37:54.583Z,71.97
2019-02-15T12:40:30.499Z,72.78
2019-02-15T12:43:10.299Z,72.29
2019-02-15T12:45:46.314Z,72.60
2019-02-15T12:48:21.551Z,72.60
2019-02-15T12:51:02.511Z,71.98
2019-02-15T12:53:37.935Z,71.58
2019-02-15T12:56:15.303Z,71.34
2019-02-15T12:58:50.834Z,71.56
2019-02-15T13:01:28.837Z,71.24
2019-02-15T13:04:05.273Z,71.13
2019-02-15T13:06:43.134Z,71.10
2019-02-15T13:09:21.274Z,71.11
2019-02-15T13:11:58.306Z,70.33
2019-02-15T13:14:36.211Z,70.91
2019-02-15T13:17:14.172Z,70.05
2019-02-15T13:19:47.428Z,69.87
2019-02-15T13:22:22.360Z,70.02
2019-02-15T13:24:57.763Z,69.71
2019-02-15T13:27:35.263Z,69.87
2019-02-15T13:30:12.916Z,69.71
2019-02-15T13:32:48.751Z,69.12
2019-02-15T13:35:30.150Z,69.59
2019-02-15T13:38:06.525Z,69.52
2019-02-15T13:40:42.314Z,69.61
2019-02-15T13:43:24.835Z,69.36
2019-02-15T13:46:01.137Z,69.34
2019-02-15T13:48:36.747Z,69.55
2019-02-15T13:51:22.234Z,69.31
2019-02-15T13:53:58.463Z,69.54
2019-02-15T13:56:35.618Z,69.69
2019-02-15T13:59:11.630Z,69.68
2019-02-15T14:01:48.083Z,69.77
2019-02-15T14:04:26.491Z,68.96
2019-02-15T14:07:04.727Z,69.40
2019-02-15T14:09:40.240Z,69.94
2019-02-15T14:12:19.328Z,69.34
2019-02-15T14:17:48.709Z,69.22
2019-02-15T14:26:10.911Z,69.68
2019-02-15T14:28:47.570Z,70.50
2019-02-15T14:31:22.765Z,69.18
2019-02-15T14:34:00.480Z,69.26
2019-02-15T14:36:37.673Z,70.36
2019-02-15T14:39:16.784Z,69.59
2019-02-15T14:41:56.031Z,70.05
2019-02-15T14:44:28.715Z,70.20
2019-02-15T14:47:05.274Z,70.57
2019-02-15T14:49:39.901Z,70.27
2019-02-15T14:52:16.747Z,70.68
2019-02-15T14:54:51.642Z,71.03
2019-02-15T14:57:26.172Z,70.67
2019-02-15T15:00:02.724Z,70.69
2019-02-15T15:02:37.784Z,71.01
2019-02-15T15:05:13.967Z,70.46
2019-02-15T15:07:48.568Z,70.51
2019-02-15T15:10:25.953Z,70.85
2019-02-15T15:12:58.640Z,71.10
2019-02-15T15:15:33.850Z,70.93
2019-02-15T15:18:15.062Z,71.29
2019-02-15T15:20:52.463Z,71.32
2019-02-15T15:23:25.183Z,71.43
2019-02-15T15:25:59.644Z,71.37
2019-02-15T15:28:33.999Z,71.12
2019-02-15T15:31:11.254Z,71.40
2019-02-15T15:33:47.297Z,70.87
2019-02-15T15:36:21.947Z,71.22
2019-02-15T15:39:03.204Z,70.37
2019-02-15T15:41:39.390Z,70.86
2019-02-15T15:44:14.528Z,71.07
2019-02-15T15:46:48.748Z,70.83
2019-02-15T15:49:28.464Z,71.89
2019-02-15T15:52:02.782Z,72.36
2019-02-15T15:54:37.151Z,70.91
2019-02-15T15:57:11.363Z,70.72
2019-02-15T15:59:45.652Z,71.84
2019-02-15T16:02:20.078Z,71.57
2019-02-15T16:04:54.385Z,71.41
2019-02-15T16:07:30.443Z,71.03
2019-02-15T16:10:04.671Z,71.30
2019-02-15T16:12:39.198Z,70.26
2019-02-15T16:15:17.410Z,70.97
2019-02-15T16:17:51.464Z,71.38
2019-02-15T16:20:25.826Z,71.34
2019-02-15T16:23:02.845Z,70.88
2019-02-15T16:25:37.505Z,71.34
2019-02-15T16:28:12.052Z,70.07
2019-02-15T16:30:46.234Z,71.29
2019-02-15T16:33:20.729Z,71.21
2019-02-15T16:36:00.642Z,70.68
2019-02-15T16:38:33.681Z,69.75
2019-02-15T16:41:15.678Z,70.84
2019-02-15T16:43:47.081Z,70.89
2019-02-15T16:46:24.040Z,71.32
2019-02-15T16:48:58.422Z,71.11
2019-02-15T16:51:35.117Z,71.11
2019-02-15T16:54:07.941Z,72.82
2019-02-15T16:56:48.142Z,71.59
2019-02-15T16:59:25.896Z,71.76
2019-02-15T17:02:00.122Z,70.78
2019-02-15T17:04:34.696Z,70.13
2019-02-15T17:07:18.349Z,70.64
2019-02-15T17:09:50.663Z,70.17
2019-02-15T17:12:25.137Z,70.86
2019-02-15T17:14:59.676Z,69.91
2019-02-15T17:17:35.925Z,70.45
2019-02-15T17:20:11.877Z,71.83
2019-02-15T17:22:46.209Z,73.03
2019-02-15T17:25:20.914Z,73.71
2019-02-15T17:27:55.207Z,73.85
2019-02-15T17:30:29.541Z,73.71
2019-02-15T17:33:03.846Z,74.01
2019-02-15T17:35:38.229Z,74.34
2019-02-15T17:38:43.751Z,73.99
2019-02-15T17:41:02.541Z,74.75
2019-02-15T17:43:37.344Z,75.01
2019-02-15T17:46:15.670Z,75.03
2019-02-15T17:49:00.342Z,75.27
2019-02-15T17:51:27.356Z,75.09
2019-02-15T17:54:01.707Z,75.19
2019-02-15T17:56:36.223Z,74.86
2019-02-15T17:59:13.175Z,74.24
2019-02-15T18:01:51.156Z,74.26
2019-02-15T18:04:28.000Z,73.23
2019-02-15T18:07:07.554Z,72.98
2019-02-15T18:09:44.765Z,72.17
2019-02-15T18:12:19.363Z,72.76
2019-02-15T18:14:57.895Z,73.62
2019-02-15T18:17:33.380Z,73.62
2019-02-15T18:20:08.451Z,72.21
2019-02-15T18:22:42.801Z,71.69
2019-02-15T18:25:17.145Z,72.22
2019-02-15T18:27:51.748Z,72.91
2019-02-15T18:30:29.106Z,72.62
2019-02-15T18:33:01.623Z,72.55
2019-02-15T18:35:35.933Z,72.59
2019-02-15T18:38:10.286Z,72.08
2019-02-15T18:40:44.695Z,72.53
2019-02-15T18:43:19.116Z,72.02
2019-02-15T18:45:56.015Z,72.02
2019-02-15T18:48:31.032Z,72.89
2019-02-15T18:51:10.938Z,73.03
2019-02-15T18:53:48.070Z,73.44
2019-02-15T18:56:22.725Z,73.63
2019-02-15T18:58:57.083Z,72.53
2019-02-15T19:01:34.702Z,72.37
2019-02-15T19:04:09.292Z,72.67
2019-02-15T19:06:43.598Z,72.23
2019-02-15T19:09:20.504Z,73.51
2019-02-15T19:11:53.583Z,73.37
2019-02-15T19:14:27.986Z,73.82
2019-02-15T19:17:02.263Z,73.75
2019-02-15T19:19:40.208Z,74.68
2019-02-15T19:22:12.061Z,73.62
2019-02-15T19:24:46.181Z,73.74
2019-02-15T19:27:20.312Z,73.35
2019-02-15T19:29:54.815Z,73.31
2019-02-15T19:32:32.126Z,72.89
2019-02-15T19:35:07.323Z,72.85
2019-02-15T19:37:39.575Z,72.43
2019-02-15T19:40:16.876Z,72.39
2019-02-15T19:42:52.755Z,72.59
2019-02-15T19:45:29.419Z,72.53
2019-02-15T19:48:03.701Z,72.70
2019-02-15T19:50:38.076Z,72.86
2019-02-15T19:53:12.431Z,72.77
2019-02-15T19:55:48.756Z,72.28
2019-02-15T19:58:22.258Z,73.01
2019-02-15T20:00:57.510Z,72.62
2019-02-15T20:03:33.145Z,73.40
2019-02-15T20:06:07.889Z,72.98
2019-02-15T20:08:42.353Z,73.25
2019-02-15T20:11:16.769Z,72.97
2019-02-15T20:13:53.387Z,72.76
2019-02-15T20:16:28.175Z,73.06
2019-02-15T20:19:02.534Z,73.24
2019-02-15T20:21:36.875Z,73.37
2019-02-15T20:24:11.089Z,73.35
2019-02-15T20:26:45.579Z,72.79
2019-02-15T20:29:23.291Z,72.86
2019-02-15T20:31:57.722Z,72.21
2019-02-15T20:34:34.572Z,71.71
2019-02-15T20:37:09.383Z,71.52
2019-02-15T20:39:44.445Z,71.66
2019-02-15T20:42:18.655Z,71.81
2019-02-15T20:44:56.769Z,72.38
2019-02-15T20:47:31.596Z,72.99
2019-02-15T20:50:05.871Z,73.37
2019-02-15T20:52:43.919Z,73.37
2019-02-15T20:55:20.076Z,73.49
2019-02-15T20:57:59.824Z,73.57
2019-02-15T21:00:32.956Z,73.19
2019-02-15T21:03:07.540Z,73.12
2019-02-15T21:05:41.905Z,73.07
2019-02-15T21:08:18.758Z,73.46
2019-02-15T21:10:55.438Z,73.63
2019-02-15T21:13:28.405Z,73.47
2019-02-15T21:16:02.759Z,73.42
2019-02-15T21:18:43.145Z,73.30
2019-02-15T21:21:17.259Z,73.47
2019-02-15T21:23:51.538Z,73.51
2019-02-15T21:26:25.805Z,73.35
2019-02-15T21:29:00.366Z,73.18
2019-02-15T21:31:36.374Z,72.99
2019-02-15T21:34:10.818Z,72.99
2019-02-15T21:36:45.042Z,73.24
2019-02-15T21:39:19.153Z,72.72
2019-02-15T21:41:55.045Z,72.68
2019-02-15T21:44:29.466Z,72.51
2019-02-15T21:47:05.930Z,72.21
2019-02-15T21:49:40.184Z,72.01
2019-02-15T21:52:14.439Z,73.20
2019-02-15T21:54:48.502Z,72.82
2019-02-15T21:57:22.595Z,73.26
2019-02-15T21:59:56.951Z,73.27
2019-02-15T22:02:31.933Z,73.17
2019-02-15T22:05:06.815Z,73.44
2019-02-15T22:07:45.853Z,73.63
2019-02-15T22:10:21.093Z,73.69
2019-02-15T22:12:57.525Z,73.44
2019-02-15T22:15:32.925Z,73.74
2019-02-15T22:18:09.489Z,73.07
2019-02-15T22:20:44.000Z,72.74
2019-02-15T22:23:18.216Z,72.58
2019-02-15T22:26:02.830Z,72.82
2019-02-15T22:28:37.046Z,74.00
2019-02-15T22:31:13.047Z,74.24
2019-02-15T22:33:48.866Z,73.91
2019-02-15T22:36:23.562Z,73.81
2019-02-15T22:38:57.758Z,73.72
2019-02-15T22:41:32.749Z,73.45
2019-02-15T22:44:06.804Z,73.28
2019-02-15T22:46:40.702Z,72.67
2019-02-15T22:49:14.448Z,72.54
2019-02-15T22:51:48.467Z,72.37
2019-02-15T22:54:23.664Z,72.08
2019-02-15T22:56:57.751Z,71.89
2019-02-15T22:59:33.342Z,71.20
2019-02-15T23:02:07.289Z,71.69
2019-02-15T23:04:40.613Z,71.24
2019-02-15T23:07:14.789Z,71.85
2019-02-15T23:09:48.707Z,72.98
2019-02-15T23:12:23.606Z,72.18
2019-02-15T23:14:57.268Z,72.25
2019-02-15T23:17:31.198Z,71.65
2019-02-15T23:20:05.680Z,71.98
2019-02-15T23:22:39.419Z,71.69
2019-02-15T23:25:13.301Z,72.46
2019-02-15T23:27:47.082Z,72.36
2019-02-15T23:30:20.601Z,71.45
2019-02-15T23:32:54.634Z,71.30
2019-02-15T23:35:28.312Z,71.05
2019-02-15T23:38:02.490Z,71.29
2019-02-15T23:40:36.846Z,71.12
2019-02-15T23:43:10.870Z,70.80
2019-02-15T23:45:45.033Z,70.28
2019-02-15T23:48:19.446Z,69.24
2019-02-15T23:50:55.211Z,68.66
2019-02-15T23:53:27.883Z,67.76
2019-02-15T23:56:02.310Z,67.56
2019-02-15T23:58:38.754Z,67.11
